Flight Track Log - Related Links

Times and Time Zones

All times are in EDT time to prevent confusion due to time zone crossing. See the N508QS flight status page for this flight to view local times or setup timezone preferences in your user account.

Time Position Orientation Groundspeed Altitude Reporting Facility
EDT Latitude Longitude Course Direction KTS MPH feet Rate Location/Type
Tue 10:52:08 PM 45.5931 -122.5922 293° West 164 189 1,200  Level Seattle Center
Tue 10:53:14 PM 45.6142 -122.6633 293° West 193 222 5,600 4,095 Climbing Seattle Center
Tue 10:54:14 PM 45.6044 -122.7458 260° West 250 288 9,800 3,719 Climbing Seattle Center
Tue 10:55:15 PM 45.5247 -122.7786 196° South 302 348 13,100 3,639 Climbing Seattle Center
Tue 10:56:16 PM 45.4308 -122.8139 195° South 340 391 17,200 3,836 Climbing Seattle Center
Tue 10:57:17 PM 45.3317 -122.8431 192° South 362 417 20,900 2,975 Climbing Seattle Center
Tue 10:58:17 PM 45.2267 -122.8769 193° South 384 442 23,200 2,855 Climbing Seattle Center
Tue 10:59:21 PM 45.0936 -122.9203 193° South 411 473 26,800 2,976 Climbing Seattle Center
Tue 11:00:22 PM 44.9772 -122.9556 192° South 426 490 29,400 2,459 Climbing Seattle Center
Tue 11:01:23 PM 44.8564 -122.9936 193° South 439 505 31,800 2,777 Climbing Seattle Center
Tue 11:02:23 PM 44.7344 -123.0300 192° South 443 510 35,000 2,826 Climbing Seattle Center
Tue 11:03:24 PM 44.6172 -123.0678 193° South 434 499 37,500 2,311 Climbing Seattle Center
Tue 11:04:25 PM 44.5008 -123.1033 192° South 428 493 39,700 1,736 Climbing Seattle Center
Tue 11:05:25 PM 44.3858 -123.1394 193° South 425 489 41,000 645 Climbing Seattle Center
Tue 11:06:26 PM 44.2717 -123.1722 192° South 421 484 41,000  Level Seattle Center
Tue 11:07:27 PM 44.1553 -123.2100 193° South 426 490 41,000  Level Seattle Center
Tue 11:08:28 PM 44.0439 -123.2331 188° South 426 490 41,000  Level Seattle Center
Tue 11:09:28 PM 43.9242 -123.2489 185° South 430 495 41,000  Level Seattle Center
Tue 11:10:29 PM 43.8047 -123.2658 186° South 431 496 41,000  Level Seattle Center
Tue 11:11:30 PM 43.6842 -123.2828 186° South 434 499 41,000  Level Seattle Center
Tue 11:12:31 PM 43.5642 -123.2981 185° South 433 498 41,000  Level Seattle Center
Tue 11:13:31 PM 43.4458 -123.3144 186° South 429 494 41,000  Level Seattle Center
Tue 11:14:32 PM 43.3258 -123.3314 186° South 433 498 41,000  Level Seattle Center
Tue 11:15:33 PM 43.1806 -123.3486 185° South 436 502 41,000  Level Seattle Center
Tue 11:16:34 PM 43.0592 -123.3489 180° South 436 502 41,000  Level Seattle Center
Tue 11:17:34 PM 42.9378 -123.3450 179° South 436 502 41,000  Level Seattle Center
Tue 11:18:35 PM 42.8142 -123.3433 179° South 442 509 41,000  Level Seattle Center
Tue 11:19:36 PM 42.6983 -123.3403 179° South 443 510 41,000  Level Seattle Center
Tue 11:20:37 PM 42.5753 -123.3383 179° South 444 511 41,000  Level Seattle Center
Tue 11:21:37 PM 42.4519 -123.3361 179° South 445 512 41,000  Level Seattle Center
Tue 11:22:38 PM 42.3289 -123.3333 179° South 444 511 41,000  Level Seattle Center
Tue 11:23:39 PM 42.2042 -123.3308 179° South 446 513 41,000  Level Seattle Center
Tue 11:24:39 PM 42.0800 -123.3297 180° South 449 517 41,000  Level Seattle Center
Tue 11:25:40 PM 41.9547 -123.3256 179° South 450 518 41,000  Level Seattle Center
Tue 11:26:41 PM 41.8303 -123.3239 179° South 449 517 41,000  Level Seattle Center
Tue 11:27:42 PM 41.6800 -123.3164 178° South 451 519 41,000  Level Seattle Center
Tue 11:28:42 PM 41.5575 -123.3011 175° South 445 512 41,000  Level Seattle Center
Tue 11:29:43 PM 41.4308 -123.2836 174° South 455 524 41,000  Level Seattle Center
Tue 11:30:44 PM 41.3161 -123.2700 175° South 458 527 41,000  Level Seattle Center
Tue 11:31:44 PM 41.1886 -123.2528 174° South 460 529 41,000  Level Seattle Center
Tue 11:32:45 PM 41.0603 -123.2367 175° South 461 531 41,000  Level Seattle Center
Tue 11:33:46 PM 40.9319 -123.2197 174° South 462 532 41,000  Level Seattle Center
Tue 11:34:46 PM 40.8025 -123.2039 175° South 465 535 41,000  Level Seattle Center
Tue 11:35:01 PM 40.7619 -123.1989 175° South 466 536 41,000  Level Oakland Center
Tue 11:36:02 PM 40.6333 -123.1825 174° South 466 536 41,000  Level Oakland Center
Tue 11:37:03 PM 40.5031 -123.1653 174° South 470 541 41,000  Level Oakland Center
Tue 11:38:04 PM 40.3744 -123.1492 175° South 468 539 41,000  Level Oakland Center
Tue 11:39:05 PM 40.2200 -123.1306 175° South 467 537 41,000  Level Oakland Center
Tue 11:40:06 PM 40.0906 -123.1153 175° South 469 540 41,000  Level Oakland Center
Tue 11:41:07 PM 39.9594 -123.0986 174° South 474 545 41,000 -49 Level Oakland Center
Tue 11:42:09 PM 39.8311 -123.0817 174° South 466 536 40,900 -780 Descending Oakland Center
Tue 11:43:10 PM 39.7044 -123.0658 175° South 461 531 39,400 -1,475 Descending Oakland Center
Tue 11:44:11 PM 39.5761 -123.0511 175° South 462 532 37,900 -1,426 Descending Oakland Center
Tue 11:45:12 PM 39.4511 -123.0336 174° South 467 537 36,500 -1,426 Descending Oakland Center
Tue 11:46:13 PM 39.3178 -123.0189 175° South 477 549 35,000 -1,623 Descending Oakland Center
Tue 11:47:14 PM 39.1608 -122.9992 174° South 474 545 33,200 -1,623 Descending Oakland Center
Tue 11:48:15 PM 39.0267 -122.9833 175° South 481 554 31,700 -1,525 Descending Oakland Center
Tue 11:49:16 PM 38.8914 -122.9667 175° South 487 560 30,100 -1,672 Descending Oakland Center
Tue 11:50:17 PM 38.7644 -122.9506 174° South 471 542 28,300 -1,770 Descending Oakland Center
Tue 11:51:18 PM 38.6375 -122.9361 175° South 460 529 26,500 -1,770 Descending Oakland Center
Tue 11:52:19 PM 38.5156 -122.9192 174° South 445 512 24,700 -1,770 Descending Oakland Center
Tue 11:53:20 PM 38.3947 -122.9061 175° South 438 504 22,900 -1,672 Descending Oakland Center
Tue 11:54:21 PM 38.2767 -122.8911 174° South 432 497 21,300 -1,574 Descending Oakland Center
Tue 11:55:22 PM 38.1617 -122.8778 175° South 421 484 19,700 -1,525 Descending Oakland Center
Tue 11:56:23 PM 38.0539 -122.8400 165° South 418 481 18,200 -1,426 Descending Oakland Center
Tue 11:57:24 PM 37.9656 -122.7456 140° Southeast 416 479 16,800 -1,574 Descending Oakland Center
Tue 11:58:25 PM 37.8628 -122.6339 139° Southeast 408 470 15,000 -1,697 Descending Oakland Center
Tue 11:59:03 PM 37.8000 -122.5833 148° Southeast 396 456 14,000 -1,408 Descending Northern Cal TRACON
Wed 12:00:03 AM 37.7333 -122.5000 135° Southeast 383 441 12,700 -1,000 Descending Northern Cal TRACON
Wed 12:01:03 AM 37.6667 -122.4167 135° Southeast 322 371 12,000 -350 Descending Northern Cal TRACON
Wed 12:02:03 AM 37.5833 -122.3500 148° Southeast 319 367 12,000 -209 Level Northern Cal TRACON
Wed 12:02:29 AM 37.5572 -122.3303 149° Southeast 333 383 11,700 -1,310 Descending Oakland Center
Wed 12:03:30 AM 37.4778 -122.2839 155° Southeast 317 365 10,100 -1,328 Descending Oakland Center
Wed 12:04:31 AM 37.4000 -122.2411 156° South 310 357 9,000 -639 Descending Oakland Center
Wed 12:05:32 AM 37.3319 -122.1875 148° Southeast 301 346 8,800 -787 Descending Oakland Center
Wed 12:06:33 AM 37.2842 -122.1125 129° Southeast 283 326 7,400 -1,131 Descending Oakland Center
Wed 12:07:34 AM 37.2386 -122.0378 127° Southeast 273 314 6,500 -1,131 Descending Oakland Center
Wed 12:08:35 AM 37.2103 -121.9603 115° Southeast 260 299 5,100 -984 Descending Oakland Center
Wed 12:09:36 AM 37.2006 -121.8678 97° East 240 276 4,500 -1,129 Descending Oakland Center
Wed 12:11:57 AM 37.3167 -121.8667 360° North 169 194 1,300 -1,164 Descending Northern Cal TRACON
Wed 12:12:57 AM 37.3333 -121.9000 302° West 118 136 600 -700 Descending Northern Cal TRACON

Login

Don't have an account? Register now (free) for customized features, flight alerts, and more!